Terminal Aerodrome Forecast
Issued by NWS Central Illinois

Home | Current Version | Previous Version | Text Only | Print | Product List | Glossary On
Versions: 1 2 3 4 5 6 7 8 9 10 11 12 13 14
000
FTUS43 KILX 070526
TAFSPI
TAF
KSPI 070526Z 0706/0806 17008KT P6SM SCT120
     FM071400 18014G22KT P6SM SCT100
     FM080000 19006KT P6SM VCSH SCT050 OVC100=

USA.gov is the U.S. government's official web portal to all federal, state and local government web resources and services.